Time;durP1;ratioP1;P1;durP2;ratioP2;P2;SDS_P1;SDS_P2;PMS_P1;PMS_P2;Temp;Humidity;BMP_temperature;BMP_pressure;BME280_temperature;BME280_humidity;BME280_pressure;Samples;Min_cycle;Max_cycle;Signal;HPM_P1;HPM_P2
2023/11/11 00:00:36;;;;;;;4.53;4.32;;;;;;;6.27;100.00;99368.25;6046224;23;20022;-69
2023/11/11 00:03:05;;;;;;;3.47;3.38;;;;;;;5.83;100.00;99290.81;6065711;23;20029;-70
2023/11/11 00:05:32;;;;;;;3.53;3.42;;;;;;;6.29;100.00;99360.38;6060954;23;20044;-69
2023/11/11 00:07:59;;;;;;;3.33;3.22;;;;;;;6.28;100.00;99363.91;6086214;23;20042;-70
2023/11/11 00:10:25;;;;;;;4.75;4.55;;;;;;;6.02;100.00;99326.28;6090485;23;20046;-68
2023/11/11 00:12:53;;;;;;;3.60;3.50;;;;;;;6.30;100.00;99364.66;6061307;23;20095;-67
2023/11/11 00:15:19;;;;;;;3.45;3.35;;;;;;;6.38;100.00;99381.53;6056386;23;20137;-69
2023/11/11 00:17:46;;;;;;;3.80;3.60;;;;;;;6.44;100.00;99379.53;6076966;23;20034;-70
2023/11/11 00:20:13;;;;;;;3.70;3.60;;;;;;;6.44;100.00;99390.78;6082135;23;20028;-69
2023/11/11 00:22:41;;;;;;;3.60;3.50;;;;;;;6.47;100.00;99384.56;6052745;23;20098;-70
2023/11/11 00:25:08;;;;;;;3.95;3.75;;;;;;;6.06;100.00;99318.22;6085174;23;20029;-69
2023/11/11 00:27:35;;;;;;;4.15;3.85;;;;;;;6.36;100.00;99375.56;6058682;23;20085;-69
2023/11/11 00:30:06;;;;;;;4.15;3.80;;;;;;;6.54;100.00;99402.38;6080081;23;20025;-70
2023/11/11 00:32:33;;;;;;;10.45;5.70;;;;;;;6.10;100.00;99324.09;6061055;23;20010;-69
2023/11/11 00:35:01;;;;;;;4.47;4.28;;;;;;;6.13;100.00;99334.34;6061477;23;20029;-69
2023/11/11 00:37:28;;;;;;;4.10;3.90;;;;;;;6.13;100.00;99332.59;6035113;23;20544;-69
2023/11/11 00:39:55;;;;;;;4.70;4.45;;;;;;;6.57;100.00;99412.63;6087215;23;20085;-69
2023/11/11 00:42:22;;;;;;;6.65;6.15;;;;;;;6.66;100.00;99428.69;6050931;23;20551;-69
2023/11/11 00:44:48;;;;;;;6.03;5.63;;;;;;;6.58;100.00;99429.09;6060069;23;20026;-69
2023/11/11 00:47:16;;;;;;;6.25;5.75;;;;;;;6.29;100.00;99379.44;6051736;23;20090;-69
2023/11/11 00:49:43;;;;;;;7.65;6.13;;;;;;;6.28;100.00;99387.38;6089863;23;20077;-72
2023/11/11 00:52:10;;;;;;;6.43;5.93;;;;;;;6.55;100.00;99444.91;6056934;23;20022;-69
2023/11/11 00:54:39;;;;;;;5.75;5.30;;;;;;;6.20;100.00;99385.19;6081016;23;20018;-69
2023/11/11 00:57:05;;;;;;;7.53;6.43;;;;;;;6.36;100.00;99408.63;6055980;23;20084;-68
2023/11/11 00:59:32;;;;;;;5.75;5.35;;;;;;;6.47;100.00;99436.66;6086912;23;20033;-69
2023/11/11 01:02:02;;;;;;;6.00;5.35;;;;;;;6.69;100.00;99472.81;6089658;23;20049;-68
2023/11/11 01:04:29;;;;;;;10.38;8.52;;;;;;;6.78;100.00;99482.75;6056204;23;20026;-70
2023/11/11 01:06:56;;;;;;;6.47;5.97;;;;;;;6.79;100.00;99487.88;6084638;23;20026;-68
2023/11/11 01:09:23;;;;;;;6.32;5.85;;;;;;;6.63;100.00;99460.97;6089543;23;20047;-68
2023/11/11 01:11:50;;;;;;;6.75;6.15;;;;;;;6.84;100.00;99486.78;6081640;23;20623;-68
2023/11/11 01:14:17;;;;;;;8.05;6.90;;;;;;;4.89;100.00;99177.97;6037461;23;20097;-68
2023/11/11 01:16:43;;;;;;;8.75;6.38;;;;;;;6.85;100.00;99493.66;6057153;23;20021;-69
2023/11/11 01:19:10;;;;;;;8.15;7.35;;;;;;;6.81;100.00;99498.19;6057543;23;20057;-69
2023/11/11 01:21:37;;;;;;;7.60;6.90;;;;;;;6.83;100.00;99495.50;6083486;23;20033;-68
2023/11/11 01:24:04;;;;;;;8.55;6.32;;;;;;;6.46;100.00;99450.66;6079008;23;20013;-69
2023/11/11 01:26:31;;;;;;;9.73;7.20;;;;;;;6.41;100.00;99442.22;6090187;23;20429;-68
2023/11/11 01:28:57;;;;;;;6.72;6.20;;;;;;;6.75;100.00;99506.38;6049838;23;20077;-68
2023/11/11 01:31:24;;;;;;;6.28;5.75;;;;;;;6.45;100.00;99467.19;6089155;23;20018;-68
2023/11/11 01:33:50;;;;;;;7.38;6.68;;;;;;;6.68;100.00;99508.47;6062141;23;20460;-68
2023/11/11 01:36:17;;;;;;;9.38;7.85;;;;;;;6.68;100.00;99520.69;6058950;23;20036;-67
2023/11/11 01:38:43;;;;;;;6.93;6.38;;;;;;;6.61;100.00;99527.97;6062828;23;20025;-68
2023/11/11 01:41:10;;;;;;;6.90;6.30;;;;;;;6.16;100.00;99459.22;6082522;23;20146;-68
2023/11/11 01:43:36;;;;;;;8.75;7.95;;;;;;;6.09;100.00;99457.84;6060007;23;20018;-68
2023/11/11 01:46:03;;;;;;;8.48;6.85;;;;;;;6.21;100.00;99511.88;6094367;23;20501;-69
2023/11/11 01:48:41;;;;;;;9.68;8.90;;;;;;;6.42;100.00;99548.16;6081378;23;20014;-69
2023/11/11 01:51:07;;;;;;;7.35;6.75;;;;;;;6.41;100.00;99546.47;6070824;23;20029;-70
2023/11/11 01:53:34;;;;;;;12.57;8.13;;;;;;;6.17;100.00;99521.66;6047622;23;20751;-70
2023/11/11 01:56:01;;;;;;;7.90;6.80;;;;;;;6.20;100.00;99536.28;6091872;23;20088;-69
2023/11/11 01:58:28;;;;;;;8.50;7.80;;;;;;;5.84;100.00;99500.78;6081255;23;20034;-68
2023/11/11 02:00:57;;;;;;;6.38;5.97;;;;;;;6.00;100.00;99537.31;6067494;23;20088;-69
2023/11/11 02:03:24;;;;;;;9.57;7.60;;;;;;;5.70;100.00;99492.84;6085453;23;20037;-69
2023/11/11 02:05:53;;;;;;;7.80;6.43;;;;;;;6.12;100.00;99573.13;6088242;23;20021;-70
2023/11/11 02:08:20;;;;;;;8.55;7.75;;;;;;;5.76;100.00;99524.59;6079226;23;20452;-69
2023/11/11 02:10:46;;;;;;;7.07;6.50;;;;;;;6.06;100.00;99580.44;6084769;23;20521;-70
2023/11/11 02:13:13;;;;;;;5.90;5.32;;;;;;;6.03;100.00;99581.41;6055616;23;20339;-70
2023/11/11 02:15:40;;;;;;;6.78;6.15;;;;;;;5.79;100.00;99560.03;6085811;23;20102;-70
2023/11/11 02:18:10;;;;;;;9.45;6.43;;;;;;;5.97;100.00;99593.00;6056993;23;20026;-69
2023/11/11 02:20:37;;;;;;;9.25;8.38;;;;;;;5.96;100.00;99599.13;6082490;23;20042;-69
2023/11/11 02:23:03;;;;;;;7.05;6.38;;;;;;;6.01;100.00;99604.09;6054688;23;20101;-70
2023/11/11 02:25:30;;;;;;;5.68;5.25;;;;;;;5.91;100.00;99592.44;6087668;23;20033;-69
2023/11/11 02:27:56;;;;;;;7.20;6.50;;;;;;;5.80;100.00;99574.75;6056677;23;20036;-69
2023/11/11 02:30:23;;;;;;;6.82;6.28;;;;;;;6.11;100.00;99620.94;6066790;23;20065;-70
2023/11/11 02:32:49;;;;;;;10.45;5.47;;;;;;;6.14;100.00;99625.16;6054380;23;20041;-67
2023/11/11 02:35:16;;;;;;;7.32;6.60;;;;;;;5.88;100.00;99576.97;6073862;23;20022;-69
2023/11/11 02:37:42;;;;;;;6.50;5.35;;;;;;;6.22;100.00;99628.22;6055968;23;20105;-69
2023/11/11 02:40:12;;;;;;;13.45;5.30;;;;;;;6.21;100.00;99629.13;6080898;23;20540;-68
2023/11/11 02:42:40;;;;;;;7.00;5.55;;;;;;;6.14;100.00;99625.16;6055624;23;20091;-69
2023/11/11 02:45:07;;;;;;;5.03;4.60;;;;;;;5.08;100.00;99450.88;6065999;23;20018;-68
2023/11/11 02:47:33;;;;;;;6.88;6.32;;;;;;;6.22;100.00;99640.41;6053325;23;20085;-69
2023/11/11 02:49:59;;;;;;;5.38;4.97;;;;;;;6.00;100.00;99612.84;6082865;23;20030;-69
2023/11/11 02:52:26;;;;;;;8.27;7.68;;;;;;;5.98;100.00;99605.09;6049523;23;20037;-69
2023/11/11 02:54:52;;;;;;;4.95;4.55;;;;;;;5.67;100.00;99571.91;6030127;23;20091;-69
2023/11/11 02:57:19;;;;;;;5.15;4.80;;;;;;;6.04;100.00;99626.56;6089217;23;20460;-69
2023/11/11 02:59:45;;;;;;;4.78;4.50;;;;;;;5.76;100.00;99581.03;6054163;23;20422;-70
2023/11/11 03:02:12;;;;;;;6.38;5.75;;;;;;;6.06;100.00;99640.34;6080886;23;20623;-69
2023/11/11 03:04:38;;;;;;;6.50;5.90;;;;;;;5.55;100.00;99562.97;6023477;23;20536;-69
2023/11/11 03:07:05;;;;;;;5.20;4.90;;;;;;;6.04;100.00;99648.22;6082145;23;20021;-69
2023/11/11 03:09:32;;;;;;;5.57;5.07;;;;;;;6.10;100.00;99647.91;6074884;23;20047;-69
2023/11/11 03:12:00;;;;;;;5.97;5.47;;;;;;;6.01;100.00;99631.91;6058572;23;20057;-68
2023/11/11 03:14:27;;;;;;;6.93;6.43;;;;;;;5.89;100.00;99612.50;6083523;23;20033;-69
2023/11/11 03:16:53;;;;;;;6.53;5.78;;;;;;;6.17;100.00;99662.31;6051344;23;20033;-69
2023/11/11 03:19:20;;;;;;;5.82;5.05;;;;;;;6.18;100.00;99655.34;6078383;23;20030;-69
2023/11/11 03:21:46;;;;;;;5.63;5.13;;;;;;;6.19;100.00;99670.03;6055849;23;20054;-69
2023/11/11 03:24:14;;;;;;;5.50;5.07;;;;;;;6.18;100.00;99664.00;6085105;23;20017;-69
2023/11/11 03:26:40;;;;;;;5.95;5.55;;;;;;;6.21;100.00;99668.19;6050768;23;20410;-69
2023/11/11 03:29:06;;;;;;;5.00;4.60;;;;;;;6.13;100.00;99666.00;6054224;23;20032;-70
2023/11/11 03:31:33;;;;;;;9.07;5.00;;;;;;;6.13;100.00;99673.81;6083776;23;20463;-70
2023/11/11 03:33:59;;;;;;;6.63;6.15;;;;;;;6.19;100.00;99678.72;6065985;23;20047;-70
2023/11/11 03:36:26;;;;;;;11.75;6.88;;;;;;;6.23;100.00;99715.03;6086031;23;20027;-69
2023/11/11 03:38:53;;;;;;;6.03;5.40;;;;;;;6.28;100.00;99684.38;6059235;23;20022;-69
2023/11/11 03:41:20;;;;;;;5.93;5.53;;;;;;;6.04;100.00;99634.38;6059498;23;20031;-69
2023/11/11 03:43:46;;;;;;;10.27;6.00;;;;;;;6.06;100.00;99648.97;6084331;23;20014;-69
2023/11/11 03:46:12;;;;;;;5.47;4.78;;;;;;;6.36;100.00;99696.09;6086401;23;20018;-69
2023/11/11 03:48:39;;;;;;;5.82;5.43;;;;;;;6.00;100.00;99636.28;6079080;23;20078;-69
2023/11/11 03:51:06;;;;;;;5.28;4.88;;;;;;;6.26;100.00;99681.84;6059811;23;20670;-68
2023/11/11 03:53:32;;;;;;;6.38;5.90;;;;;;;6.29;100.00;99678.22;6054563;23;20026;-68
2023/11/11 03:56:03;;;;;;;4.90;4.35;;;;;;;6.36;100.00;99698.69;6058804;23;20095;-69
2023/11/11 03:58:30;;;;;;;7.40;6.75;;;;;;;6.18;100.00;99684.84;6082396;23;20609;-68
2023/11/11 04:00:56;;;;;;;5.35;5.00;;;;;;;6.25;100.00;99687.97;6036051;23;20045;-70
2023/11/11 04:03:22;;;;;;;4.20;3.90;;;;;;;5.98;100.00;99636.34;6088303;23;20024;-69
2023/11/11 04:05:49;;;;;;;5.47;5.18;;;;;;;6.42;100.00;99696.72;6051605;23;20088;-68
2023/11/11 04:08:16;;;;;;;5.13;4.72;;;;;;;6.36;100.00;99703.91;6091942;23;20029;-69
2023/11/11 04:10:42;;;;;;;4.20;4.00;;;;;;;6.32;100.00;99711.97;6056432;23;20022;-68
2023/11/11 04:13:09;;;;;;;4.10;3.90;;;;;;;6.28;100.00;99706.06;6085425;23;20077;-69
2023/11/11 04:15:35;;;;;;;4.20;4.00;;;;;;;6.24;100.00;99704.53;6059205;23;20085;-70
2023/11/11 04:18:02;;;;;;;4.10;3.88;;;;;;;5.80;100.00;99635.47;6084182;23;20034;-70
2023/11/11 04:20:28;;;;;;;6.53;5.80;;;;;;;4.96;100.00;99512.94;6054162;23;20034;-69
2023/11/11 04:22:55;;;;;;;4.80;4.50;;;;;;;6.03;100.00;99697.78;6056868;23;20412;-68
2023/11/11 04:25:21;;;;;;;4.50;4.20;;;;;;;5.71;100.00;99668.91;6057538;23;20030;-68
2023/11/11 04:27:47;;;;;;;4.18;3.88;;;;;;;4.98;100.00;99555.31;6057140;23;20182;-68
2023/11/11 04:30:14;;;;;;;8.15;4.22;;;;;;;5.83;100.00;99704.75;6081657;23;20056;-69
2023/11/11 04:32:41;;;;;;;4.38;4.00;;;;;;;5.77;100.00;99715.47;6086018;23;20036;-70
2023/11/11 04:35:07;;;;;;;4.65;4.38;;;;;;;5.73;100.00;99721.75;6083196;23;20021;-68
2023/11/11 04:37:35;;;;;;;4.30;4.10;;;;;;;5.73;100.00;99732.16;6087277;23;20460;-68
2023/11/11 04:40:01;;;;;;;3.95;3.75;;;;;;;5.22;100.00;99669.50;6060268;23;20489;-68
2023/11/11 04:42:28;;;;;;;6.55;5.43;;;;;;;5.75;100.00;99745.94;6082468;23;20464;-68
2023/11/11 04:44:56;;;;;;;4.50;4.10;;;;;;;5.62;100.00;99748.28;6062410;23;20448;-68
2023/11/11 04:47:22;;;;;;;4.80;4.50;;;;;;;5.82;100.00;99772.56;6077913;23;20096;-66
2023/11/11 04:49:49;;;;;;;3.80;3.60;;;;;;;5.34;100.00;99694.09;6060362;23;20038;-70
2023/11/11 04:52:16;;;;;;;3.88;3.67;;;;;;;5.77;100.00;99767.53;6086912;23;20025;-68
2023/11/11 04:54:46;;;;;;;3.72;3.63;;;;;;;5.84;100.00;99778.53;6049901;23;20078;-69
2023/11/11 04:57:13;;;;;;;4.00;3.80;;;;;;;5.85;100.00;99781.03;6092989;23;20037;-68
2023/11/11 04:59:40;;;;;;;4.32;3.80;;;;;;;5.88;100.00;99782.69;6055439;23;20030;-68
2023/11/11 05:02:06;;;;;;;3.30;3.20;;;;;;;5.90;100.00;99794.69;6083491;23;20089;-68
2023/11/11 05:04:32;;;;;;;5.45;5.25;;;;;;;5.49;100.00;99729.81;6051010;23;20631;-70
2023/11/11 05:06:59;;;;;;;4.18;3.92;;;;;;;5.75;100.00;99775.44;6082531;23;20032;-69
2023/11/11 05:09:27;;;;;;;4.07;3.88;;;;;;;5.77;100.00;99775.34;6037858;23;20066;-69
2023/11/11 05:11:54;;;;;;;4.78;4.40;;;;;;;6.12;100.00;99824.97;6084173;23;20033;-71
2023/11/11 05:14:20;;;;;;;4.75;4.45;;;;;;;6.08;100.00;99815.63;6058310;23;20041;-69
2023/11/11 05:16:54;;;;;;;4.47;4.28;;;;;;;6.09;100.00;99802.50;6084405;23;20099;-68
2023/11/11 05:19:21;;;;;;;3.67;3.47;;;;;;;5.63;100.00;99734.34;6063537;23;20014;-68
2023/11/11 05:21:48;;;;;;;4.10;3.90;;;;;;;5.97;100.00;99779.66;6085379;23;20051;-69
2023/11/11 05:24:14;;;;;;;3.90;3.70;;;;;;;6.12;100.00;99806.72;6055141;23;20033;-69
2023/11/11 05:26:42;;;;;;;3.90;3.70;;;;;;;5.74;100.00;99739.06;6085098;23;20092;-69
2023/11/11 05:29:09;;;;;;;3.78;3.67;;;;;;;5.80;100.00;99741.38;6078484;23;20089;-69
2023/11/11 05:31:36;;;;;;;4.78;4.40;;;;;;;6.06;100.00;99788.78;6027878;23;20035;-68
2023/11/11 05:34:03;;;;;;;3.60;3.40;;;;;;;5.92;100.00;99769.44;6087816;23;20672;-68
2023/11/11 05:36:32;;;;;;;5.22;5.00;;;;;;;5.65;100.00;99716.06;6078089;23;20672;-68
2023/11/11 05:38:59;;;;;;;4.40;4.10;;;;;;;6.18;100.00;99802.06;6052991;23;20088;-68
2023/11/11 05:41:26;;;;;;;3.80;3.60;;;;;;;6.17;100.00;99816.03;6057838;23;20017;-69
2023/11/11 05:43:53;;;;;;;4.53;4.25;;;;;;;6.15;100.00;99804.84;6048163;23;20022;-68
2023/11/11 05:46:20;;;;;;;4.45;4.25;;;;;;;5.91;100.00;99798.13;6083017;23;20081;-68
2023/11/11 05:48:46;;;;;;;4.72;4.35;;;;;;;5.80;100.00;99781.25;6046428;23;20018;-68
2023/11/11 05:51:13;;;;;;;4.03;3.83;;;;;;;6.03;100.00;99821.03;6087081;23;20048;-68
2023/11/11 05:53:39;;;;;;;5.07;4.70;;;;;;;5.99;100.00;99822.94;6049747;23;20112;-67
2023/11/11 05:56:08;;;;;;;3.33;3.22;;;;;;;5.60;100.00;99783.97;6084842;23;20041;-68
2023/11/11 05:58:35;;;;;;;6.15;5.75;;;;;;;5.82;100.00;99809.00;6055450;23;20034;-68
2023/11/11 06:01:05;;;;;;;4.85;4.55;;;;;;;5.33;100.00;99749.63;6088269;23;20659;-68
2023/11/11 06:03:32;;;;;;;6.55;4.10;;;;;;;5.71;100.00;99810.34;6066506;23;20018;-69
2023/11/11 06:06:01;;;;;;;4.38;4.13;;;;;;;5.54;100.00;99803.31;6081345;23;20022;-69
2023/11/11 06:08:28;;;;;;;5.85;5.50;;;;;;;5.27;100.00;99773.31;6059765;23;20018;-68
2023/11/11 06:10:54;;;;;;;4.55;4.30;;;;;;;5.54;100.00;99831.09;6081205;23;20141;-69
2023/11/11 06:13:23;;;;;;;4.10;3.83;;;;;;;5.40;100.00;99818.69;6057512;23;20046;-69
2023/11/11 06:15:49;;;;;;;4.55;4.20;;;;;;;5.19;100.00;99800.53;6084973;23;20068;-69
2023/11/11 06:18:17;;;;;;;5.25;4.85;;;;;;;5.11;100.00;99807.84;6083185;23;21027;-69
2023/11/11 06:20:43;;;;;;;4.70;4.40;;;;;;;5.09;100.00;99804.47;6090741;23;20626;-69
2023/11/11 06:23:11;;;;;;;4.80;4.50;;;;;;;5.37;100.00;99860.47;6088081;23;20033;-69
2023/11/11 06:25:40;;;;;;;5.38;5.00;;;;;;;5.31;100.00;99858.13;6082966;23;20089;-69
2023/11/11 06:28:07;;;;;;;4.57;4.35;;;;;;;5.31;100.00;99872.00;6055049;23;20027;-69
2023/11/11 06:30:33;;;;;;;7.40;5.32;;;;;;;5.28;100.00;99872.13;6075706;23;20044;-68
2023/11/11 06:33:00;;;;;;;4.68;4.38;;;;;;;5.21;100.00;99865.47;6082356;23;20021;-68
2023/11/11 06:35:27;;;;;;;4.28;4.07;;;;;;;5.09;100.00;99851.28;6064721;23;20017;-68
2023/11/11 06:37:57;;;;;;;4.43;4.20;;;;;;;4.61;100.00;99784.88;6035190;23;20545;-68
2023/11/11 06:40:24;;;;;;;5.22;4.93;;;;;;;5.15;100.00;99866.63;6087445;23;20096;-68
2023/11/11 06:42:54;;;;;;;9.98;9.35;;;;;;;4.70;100.00;99809.63;5976886;23;20014;-71
2023/11/11 06:45:22;;;;;;;4.75;4.45;;;;;;;5.23;100.00;99900.06;6061858;23;20029;-68
2023/11/11 06:47:49;;;;;;;4.05;3.85;;;;;;;5.24;100.00;99904.38;6051303;23;20042;-69
2023/11/11 06:50:19;;;;;;;4.53;4.13;;;;;;;5.22;100.00;99908.81;6087520;23;20033;-70
2023/11/11 06:52:46;;;;;;;5.18;4.88;;;;;;;5.16;100.00;99899.50;6048347;23;20028;-70
2023/11/11 06:55:12;;;;;;;4.47;4.18;;;;;;;5.25;100.00;99900.88;6053183;23;20498;-70
2023/11/11 06:57:39;;;;;;;7.05;4.82;;;;;;;4.97;100.00;99857.84;6063804;23;20486;-70
2023/11/11 07:00:15;;;;;;;4.63;4.32;;;;;;;5.13;100.00;99888.38;6082497;23;20420;-68
2023/11/11 07:02:47;;;;;;;13.80;4.80;;;;;;;5.00;100.00;99880.25;6056084;23;20036;-70
2023/11/11 07:05:13;;;;;;;5.15;4.72;;;;;;;5.17;100.00;99910.75;6079385;23;20010;-69
2023/11/11 07:07:40;;;;;;;4.60;4.40;;;;;;;4.99;100.00;99891.56;6060230;23;20030;-70
2023/11/11 07:10:09;;;;;;;8.85;5.38;;;;;;;5.16;100.00;99915.09;6089861;23;20092;-69
2023/11/11 07:12:36;;;;;;;6.00;5.53;;;;;;;5.14;100.00;99924.72;6058527;23;20018;-70
2023/11/11 07:15:03;;;;;;;5.70;4.68;;;;;;;4.86;100.00;99878.25;6066888;23;20033;-70
2023/11/11 07:17:30;;;;;;;4.05;3.85;;;;;;;5.08;100.00;99916.34;6025405;23;20035;-70
2023/11/11 07:19:57;;;;;;;10.25;6.10;;;;;;;5.15;100.00;99915.16;6089782;23;20342;-70
2023/11/11 07:22:24;;;;;;;6.18;5.78;;;;;;;5.16;100.00;99919.47;6032083;23;20480;-70
2023/11/11 07:24:52;;;;;;;4.95;4.65;;;;;;;5.19;100.00;99920.19;6088704;23;20028;-69
2023/11/11 07:27:19;;;;;;;6.93;5.63;;;;;;;4.07;100.00;99734.28;6061714;23;20033;-71
2023/11/11 07:29:46;;;;;;;4.50;4.30;;;;;;;4.58;100.00;99816.16;6054428;23;20050;-70
2023/11/11 07:32:13;;;;;;;4.68;4.35;;;;;;;5.21;100.00;99891.50;6059824;23;20085;-70
2023/11/11 07:34:43;;;;;;;4.97;4.65;;;;;;;5.32;100.00;99917.06;6088226;23;20014;-69
2023/11/11 07:37:11;;;;;;;4.97;4.43;;;;;;;4.75;100.00;99821.53;6086777;23;20473;-68
2023/11/11 07:39:38;;;;;;;5.30;4.82;;;;;;;5.00;100.00;99864.66;6090962;23;20645;-69
2023/11/11 07:42:07;;;;;;;8.25;5.18;;;;;;;5.33;100.00;99908.34;6090120;23;20033;-69
2023/11/11 07:44:34;;;;;;;7.03;6.50;;;;;;;5.35;100.00;99909.97;6085037;23;20071;-70
2023/11/11 07:47:01;;;;;;;5.10;4.72;;;;;;;5.09;100.00;99866.00;6081485;23;20084;-69
2023/11/11 07:49:28;;;;;;;5.00;4.60;;;;;;;5.16;100.00;99875.25;6054311;23;20050;-69
2023/11/11 07:51:54;;;;;;;5.28;4.95;;;;;;;5.10;100.00;99857.31;6071756;23;20055;-69
2023/11/11 07:54:20;;;;;;;6.00;5.30;;;;;;;5.03;100.00;99832.47;6052436;23;20082;-70
2023/11/11 07:56:47;;;;;;;4.72;4.32;;;;;;;5.49;100.00;99900.72;6092520;23;20075;-71
2023/11/11 07:59:14;;;;;;;4.97;4.57;;;;;;;5.62;100.00;99907.06;6053635;23;20053;-70
2023/11/11 08:01:41;;;;;;;5.07;4.70;;;;;;;5.75;100.00;99913.44;6088247;23;20025;-71
2023/11/11 08:04:08;;;;;;;5.95;5.38;;;;;;;5.54;100.00;99863.16;6083123;23;20604;-70
2023/11/11 08:06:35;;;;;;;6.47;5.95;;;;;;;5.73;100.00;99890.97;6081480;23;20599;-70
2023/11/11 08:09:04;;;;;;;7.60;6.78;;;;;;;5.73;100.00;99877.94;6054298;23;20022;-68
2023/11/11 08:11:30;;;;;;;5.57;5.18;;;;;;;5.54;100.00;99838.91;6081761;23;20098;-70
2023/11/11 08:13:58;;;;;;;5.38;4.95;;;;;;;5.51;100.00;99828.63;6056412;23;20034;-70
2023/11/11 08:16:25;;;;;;;7.20;6.35;;;;;;;5.75;100.00;99860.50;6080771;23;20052;-69
2023/11/11 08:18:52;;;;;;;4.75;4.50;;;;;;;5.80;100.00;99859.38;6036033;23;20025;-69
2023/11/11 08:21:25;;;;;;;4.28;4.00;;;;;;;5.81;100.00;99855.00;6086029;23;20029;-70
2023/11/11 08:23:52;;;;;;;;;;;;;;;5.87;100.00;99865.13;6059567;23;20660;-70
2023/11/11 08:26:19;;;;;;;4.28;4.07;;;;;;;5.92;100.00;99857.97;6060434;23;20419;-70
2023/11/11 08:28:45;;;;;;;4.85;4.45;;;;;;;6.16;100.00;99866.41;6067693;23;20094;-70
2023/11/11 08:31:12;;;;;;;4.65;4.35;;;;;;;6.39;100.00;99865.34;6085371;23;20105;-70
2023/11/11 08:33:38;;;;;;;6.05;5.40;;;;;;;6.34;100.00;99811.75;6060606;23;20023;-69
2023/11/11 08:36:05;;;;;;;5.22;4.93;;;;;;;6.84;100.00;99851.88;6083426;23;20514;-69
2023/11/11 08:38:31;;;;;;;7.10;6.40;;;;;;;6.97;100.00;99840.72;6058024;23;20023;-70
2023/11/11 08:40:58;;;;;;;5.53;5.03;;;;;;;7.15;100.00;99843.31;6082383;23;20013;-70
2023/11/11 08:43:25;;;;;;;4.22;4.00;;;;;;;7.03;100.00;99763.06;6057601;23;20026;-70
2023/11/11 08:45:52;;;;;;;4.97;4.68;;;;;;;7.34;100.00;99802.28;6063400;23;20720;-71
2023/11/11 08:48:19;;;;;;;5.03;4.72;;;;;;;7.33;100.00;99776.25;6045474;23;20035;-70
2023/11/11 08:50:46;;;;;;;4.45;4.15;;;;;;;7.44;100.00;99760.00;6081520;23;20025;-70
2023/11/11 08:53:13;;;;;;;4.72;4.43;;;;;;;7.29;100.00;99730.38;6044642;23;20027;-69
2023/11/11 08:55:41;;;;;;;8.77;4.75;;;;;;;6.94;100.00;99647.03;6074413;23;20026;-68
2023/11/11 08:58:08;;;;;;;4.88;4.57;;;;;;;7.45;100.00;99699.06;6060841;23;20049;-69
2023/11/11 09:00:35;;;;;;;5.65;5.35;;;;;;;7.47;100.00;99691.97;6080733;23;20660;-70
2023/11/11 09:03:04;;;;;;;5.20;4.80;;;;;;;7.49;100.00;99688.34;6050860;23;20033;-70
2023/11/11 09:05:30;;;;;;;5.22;4.82;;;;;;;7.54;100.00;99677.69;6085749;23;20393;-70
2023/11/11 09:07:58;;;;;;;5.28;4.97;;;;;;;7.55;100.00;99656.69;6056882;23;20619;-69
2023/11/11 09:10:27;;;;;;;7.32;6.40;;;;;;;7.69;100.00;99655.91;6082384;23;20018;-70
2023/11/11 09:12:54;;;;;;;4.90;4.50;;;;;;;7.66;100.00;99635.19;6049605;23;20054;-70
2023/11/11 09:15:21;;;;;;;6.28;5.30;;;;;;;7.69;100.00;99631.56;6084192;23;20370;-69
2023/11/11 09:17:48;;;;;;;5.03;4.68;;;;;;;7.91;100.00;99634.59;6054475;23;20058;-69
2023/11/11 09:20:14;;;;;;;5.47;5.15;;;;;;;7.83;100.00;99617.72;6088811;23;20496;-69
2023/11/11 09:22:41;;;;;;;4.95;4.55;;;;;;;7.89;100.00;99610.34;6084342;23;20022;-70
2023/11/11 09:25:09;;;;;;;5.18;4.88;;;;;;;7.87;100.00;99595.69;6080428;23;20054;-69
2023/11/11 09:27:35;;;;;;;5.38;4.88;;;;;;;7.75;100.00;99569.34;6084408;23;20267;-69
2023/11/11 09:30:02;;;;;;;6.05;4.80;;;;;;;8.23;100.00;99628.44;6023841;23;20105;-70
2023/11/11 09:32:29;;;;;;;6.32;5.93;;;;;;;8.19;100.00;99576.31;6089932;23;20013;-69
2023/11/11 09:34:55;;;;;;;5.15;4.85;;;;;;;8.57;100.00;99596.72;6061270;23;20511;-69
2023/11/11 09:37:22;;;;;;;4.57;4.38;;;;;;;8.75;100.00;99586.88;6086358;23;20698;-69
2023/11/11 09:39:49;;;;;;;4.85;4.55;;;;;;;8.80;100.00;99573.53;6092654;23;20096;-70
2023/11/11 09:42:15;;;;;;;5.32;5.03;;;;;;;8.51;100.00;99515.19;6049224;23;20079;-70
2023/11/11 09:44:44;;;;;;;5.05;4.75;;;;;;;8.79;100.00;99522.16;6084441;23;20108;-69
2023/11/11 09:47:17;;;;;;;7.72;5.00;;;;;;;8.62;100.00;99489.22;6052377;23;20085;-70
2023/11/11 09:49:44;;;;;;;5.82;5.32;;;;;;;8.45;100.00;99442.38;6083834;23;20032;-70
2023/11/11 09:52:13;;;;;;;4.97;4.68;;;;;;;8.53;100.00;99447.97;6056781;23;20017;-69
2023/11/11 09:54:45;;;;;;;4.57;4.38;;;;;;;8.51;100.00;99444.59;6079449;23;20025;-69
2023/11/11 09:57:15;;;;;;;4.88;4.57;;;;;;;8.45;100.00;99450.22;6055394;23;20022;-69
2023/11/11 09:59:43;;;;;;;5.93;5.50;;;;;;;8.53;100.00;99474.09;6082513;23;20033;-69
2023/11/11 10:02:11;;;;;;;11.05;5.18;;;;;;;8.26;100.00;99433.06;6057827;23;20088;-69
2023/11/11 10:04:39;;;;;;;5.70;5.18;;;;;;;8.03;100.00;99402.31;6050393;23;20025;-70
2023/11/11 10:07:06;;;;;;;7.35;4.93;;;;;;;8.12;100.00;99404.34;6080324;23;20025;-72
2023/11/11 10:09:33;;;;;;;5.32;4.93;;;;;;;8.36;100.00;99423.69;6081199;23;20029;-70
2023/11/11 10:12:00;;;;;;;4.97;4.57;;;;;;;8.32;100.00;99390.84;6081719;23;20159;-70
2023/11/11 10:14:29;;;;;;;6.15;5.78;;;;;;;8.69;100.00;99435.56;6055504;23;20022;-69
2023/11/11 10:16:58;;;;;;;4.82;4.53;;;;;;;8.68;100.00;99449.59;6083398;23;20044;-69
2023/11/11 10:19:26;;;;;;;5.55;5.15;;;;;;;8.92;100.00;99457.63;6093244;23;20382;-71
2023/11/11 10:21:57;;;;;;;4.90;4.40;;;;;;;8.84;100.00;99404.97;6036153;23;20026;-69
2023/11/11 10:24:24;;;;;;;13.68;6.85;;;;;;;8.65;100.00;99362.66;6050691;23;20014;-69
2023/11/11 10:26:52;;;;;;;5.82;4.85;;;;;;;8.81;100.00;99406.94;6053781;23;20029;-71
2023/11/11 10:29:18;;;;;;;5.82;5.35;;;;;;;8.82;100.00;99424.31;6074068;23;20037;-70
2023/11/11 10:31:47;;;;;;;5.18;4.88;;;;;;;8.81;100.00;99433.09;6055719;23;20587;-70
2023/11/11 10:34:14;;;;;;;5.45;5.10;;;;;;;8.78;100.00;99429.75;6083527;23;20041;-71
2023/11/11 10:36:45;;;;;;;4.95;4.65;;;;;;;8.97;100.00;99441.63;6071440;23;20026;-70
2023/11/11 10:39:12;;;;;;;7.72;6.18;;;;;;;8.72;100.00;99408.38;6086787;23;20028;-69
2023/11/11 10:41:39;;;;;;;7.65;5.13;;;;;;;9.07;100.00;99434.00;6051097;23;20057;-70
2023/11/11 10:44:07;;;;;;;4.88;4.57;;;;;;;9.05;100.00;99392.22;6077564;23;20118;-71
2023/11/11 10:46:39;;;;;;;6.43;5.95;;;;;;;8.83;100.00;99321.34;6054634;23;20026;-69
2023/11/11 10:49:09;;;;;;;;;;;;;;;9.27;100.00;99375.09;6085211;23;20115;-71
2023/11/11 10:51:36;;;;;;;6.15;5.32;;;;;;;9.13;100.00;99337.59;6068970;23;19985;-69
2023/11/11 10:54:05;;;;;;;4.82;4.53;;;;;;;9.38;100.00;99369.94;6077730;23;20087;-69
2023/11/11 10:56:33;;;;;;;5.97;5.57;;;;;;;9.08;100.00;99305.69;6059046;23;20038;-69
2023/11/11 10:59:04;;;;;;;7.07;5.20;;;;;;;9.76;100.00;99416.22;6078417;23;20128;-69
2023/11/11 11:01:35;;;;;;;6.10;5.60;;;;;;;9.24;100.00;99323.78;6056323;23;20092;-69
2023/11/11 11:04:04;;;;;;;4.93;4.53;;;;;;;9.28;100.00;99282.50;6080797;23;20006;-70
2023/11/11 11:06:42;;;;;;;9.38;5.65;;;;;;;9.46;100.00;99302.19;6053152;23;20075;-72
2023/11/11 11:09:18;;;;;;;5.60;5.15;;;;;;;9.48;100.00;99279.34;6082729;23;20094;-70
2023/11/11 11:11:57;;;;;;;5.20;4.90;;;;;;;9.02;100.00;99251.16;6050701;23;20077;-69
2023/11/11 11:14:51;;;;;;;6.03;5.55;;;;;;;9.38;100.00;99343.75;6085110;23;20048;-70
2023/11/11 11:17:24;;;;;;;5.28;4.97;;;;;;;9.30;100.00;99335.59;6043216;23;20040;-69
2023/11/11 11:20:00;;;;;;;5.15;4.85;;;;;;;9.25;100.00;99341.16;6084615;23;20027;-69
2023/11/11 11:22:34;;;;;;;16.23;7.03;;;;;;;9.10;100.00;99319.50;6051927;23;20119;-72
2023/11/11 11:25:32;;;;;;;5.00;4.70;;;;;;;9.32;100.00;99341.56;6082574;23;20022;-69
2023/11/11 11:28:12;;;;;;;5.03;4.50;;;;;;;9.23;100.00;99342.22;6084842;23;20022;-69
2023/11/11 11:30:47;;;;;;;5.65;4.43;;;;;;;9.45;100.00;99394.78;6079083;23;20027;-71
2023/11/11 11:33:21;;;;;;;6.15;4.85;;;;;;;9.70;100.00;99408.78;6061304;23;20532;-69
2023/11/11 11:35:50;;;;;;;4.60;4.30;;;;;;;9.62;100.00;99345.63;6084300;23;20048;-71